createdAt,value
2018-12-14T00:00:07.429Z,24.30
2018-12-14T00:02:34.930Z,22.50
2018-12-14T00:05:02.447Z,22.03
2018-12-14T00:07:29.932Z,21.23
2018-12-14T00:09:57.408Z,21.83
2018-12-14T00:12:24.996Z,20.90
2018-12-14T00:14:52.542Z,20.83
2018-12-14T00:17:20.066Z,20.00
2018-12-14T00:19:47.567Z,19.13
2018-12-14T00:22:15.143Z,18.90
2018-12-14T00:24:42.619Z,20.27
2018-12-14T00:27:10.239Z,18.13
2018-12-14T00:29:38.303Z,19.13
2018-12-14T00:32:05.971Z,21.63
2018-12-14T00:34:33.488Z,18.03
2018-12-14T00:37:00.988Z,17.90
2018-12-14T00:39:28.549Z,18.37
2018-12-14T00:41:56.025Z,17.97
2018-12-14T00:44:23.525Z,21.47
2018-12-14T00:46:51.042Z,20.00
2018-12-14T00:49:18.592Z,19.07
2018-12-14T00:51:46.200Z,16.83
2018-12-14T00:54:13.723Z,17.30
2018-12-14T00:56:41.210Z,18.20
2018-12-14T00:59:08.741Z,18.10
2018-12-14T01:01:36.273Z,19.37
2018-12-14T01:04:03.749Z,16.27
2018-12-14T01:06:31.351Z,18.40
2018-12-14T01:08:58.916Z,15.67
2018-12-14T01:11:26.400Z,15.90
2018-12-14T01:13:54.120Z,15.97
2018-12-14T01:16:21.624Z,15.70
2018-12-14T01:18:49.111Z,16.63
2018-12-14T01:21:16.591Z,15.70
2018-12-14T01:23:44.071Z,15.97
2018-12-14T01:26:11.589Z,15.60
2018-12-14T01:28:39.068Z,15.60
2018-12-14T01:31:06.557Z,18.93
2018-12-14T01:33:34.080Z,18.30
2018-12-14T01:36:01.551Z,18.53
2018-12-14T01:38:29.036Z,17.00
2018-12-14T01:40:56.521Z,18.80
2018-12-14T01:43:24.344Z,16.57
2018-12-14T01:45:51.873Z,19.43
2018-12-14T01:48:19.437Z,20.00
2018-12-14T01:50:47.023Z,18.10
2018-12-14T01:53:14.496Z,18.80
2018-12-14T01:55:41.977Z,19.67
2018-12-14T01:58:09.498Z,19.00
2018-12-14T02:00:36.961Z,18.13
2018-12-14T02:03:04.509Z,18.10
2018-12-14T02:05:32.002Z,19.23
2018-12-14T02:07:59.512Z,18.80
2018-12-14T02:10:26.989Z,18.73
2018-12-14T02:12:54.494Z,20.00
2018-12-14T02:15:21.976Z,18.87
2018-12-14T02:17:49.480Z,17.97
2018-12-14T02:20:16.984Z,15.43
2018-12-14T02:22:44.495Z,18.07
2018-12-14T02:25:11.967Z,13.67
2018-12-14T02:27:39.513Z,16.27
2018-12-14T02:30:18.961Z,18.57
2018-12-14T02:32:46.588Z,15.83
2018-12-14T02:35:14.076Z,14.00
2018-12-14T02:37:41.577Z,16.27
2018-12-14T02:40:09.181Z,16.77
2018-12-14T02:42:36.666Z,19.67
2018-12-14T02:45:05.131Z,16.47
2018-12-14T02:47:32.705Z,18.10
2018-12-14T02:50:00.280Z,16.40
2018-12-14T02:52:27.776Z,14.90
2018-12-14T02:54:55.260Z,16.70
2018-12-14T02:57:22.822Z,17.93
2018-12-14T02:59:50.311Z,17.13
2018-12-14T03:02:17.795Z,19.97
2018-12-14T03:04:45.274Z,24.13
2018-12-14T03:07:12.769Z,25.40
2018-12-14T03:09:40.311Z,20.03
2018-12-14T03:12:07.816Z,19.93
2018-12-14T03:14:35.305Z,18.07
2018-12-14T03:17:02.781Z,19.57
2018-12-14T03:19:30.315Z,18.43
2018-12-14T03:21:57.825Z,18.37
2018-12-14T03:24:25.418Z,19.00
2018-12-14T03:26:52.909Z,18.97
2018-12-14T03:29:20.420Z,16.27
2018-12-14T03:31:48.190Z,18.20
2018-12-14T03:34:15.847Z,20.43
2018-12-14T03:36:43.357Z,18.00
2018-12-14T03:39:10.976Z,19.37
2018-12-14T03:41:38.582Z,19.60
2018-12-14T03:44:06.095Z,18.40
2018-12-14T03:46:33.637Z,20.50
2018-12-14T03:49:01.203Z,21.80
2018-12-14T03:51:28.763Z,21.43
2018-12-14T03:53:56.305Z,20.33
2018-12-14T03:56:23.883Z,22.07
2018-12-14T03:58:51.442Z,20.87
2018-12-14T04:01:18.928Z,21.03
2018-12-14T04:03:46.409Z,21.40
2018-12-14T04:06:13.917Z,22.43
2018-12-14T04:08:41.408Z,22.63
2018-12-14T04:11:10.945Z,20.40
2018-12-14T04:13:38.447Z,21.03
2018-12-14T04:16:06.376Z,21.60
2018-12-14T04:18:33.873Z,25.80
2018-12-14T04:21:01.365Z,23.67
2018-12-14T04:23:28.931Z,25.77
2018-12-14T04:25:56.468Z,22.93
2018-12-14T04:28:23.960Z,27.70
2018-12-14T04:30:51.480Z,25.33
2018-12-14T04:33:18.954Z,22.87
2018-12-14T04:35:46.450Z,24.50
2018-12-14T04:38:13.966Z,28.10
2018-12-14T04:40:41.484Z,22.50
2018-12-14T04:43:08.972Z,25.20
2018-12-14T04:45:36.576Z,24.50
2018-12-14T04:48:04.058Z,24.23
2018-12-14T04:50:31.547Z,24.13
2018-12-14T04:52:59.130Z,25.00
2018-12-14T04:55:26.859Z,21.27
2018-12-14T04:57:54.380Z,26.53
2018-12-14T05:00:21.932Z,26.80
2018-12-14T05:02:49.497Z,23.50
2018-12-14T05:05:16.993Z,27.27
2018-12-14T05:07:44.470Z,26.50
2018-12-14T05:10:12.033Z,27.90
2018-12-14T05:12:39.632Z,25.10
2018-12-14T05:15:07.194Z,22.20
2018-12-14T05:17:34.800Z,23.50
2018-12-14T05:20:02.380Z,26.23
2018-12-14T05:22:29.955Z,24.60
2018-12-14T05:24:57.514Z,25.07
2018-12-14T05:27:25.341Z,27.07
2018-12-14T05:29:53.117Z,27.17
2018-12-14T05:32:20.626Z,28.33
2018-12-14T05:34:48.191Z,28.17
2018-12-14T05:37:15.711Z,25.80
2018-12-14T05:39:43.210Z,25.43
2018-12-14T05:42:10.703Z,26.07
2018-12-14T05:44:38.162Z,25.57
2018-12-14T05:47:05.665Z,25.07
2018-12-14T05:49:33.148Z,27.27
2018-12-14T05:52:00.643Z,23.00
2018-12-14T05:54:28.145Z,26.60
2018-12-14T05:56:55.718Z,23.17
2018-12-14T05:59:23.196Z,24.37
2018-12-14T06:01:50.719Z,27.40
2018-12-14T06:04:18.215Z,27.10
2018-12-14T06:06:45.698Z,25.60
2018-12-14T06:09:13.293Z,25.67
2018-12-14T06:11:40.781Z,26.63
2018-12-14T06:14:08.267Z,24.43
2018-12-14T06:16:35.746Z,27.67
2018-12-14T06:19:03.356Z,27.70
2018-12-14T06:21:30.856Z,27.57
2018-12-14T06:23:58.363Z,27.07
2018-12-14T06:26:25.828Z,29.33
2018-12-14T06:28:53.385Z,32.17
2018-12-14T06:31:20.901Z,27.30
2018-12-14T06:33:48.398Z,29.93
2018-12-14T06:36:15.881Z,29.27
2018-12-14T06:38:43.427Z,30.17
2018-12-14T06:41:10.982Z,25.27
2018-12-14T06:43:38.537Z,26.30
2018-12-14T06:46:06.238Z,28.90
2018-12-14T06:48:33.736Z,28.13
2018-12-14T06:51:01.619Z,27.03
2018-12-14T06:53:29.225Z,27.23
2018-12-14T06:55:56.689Z,28.00
2018-12-14T06:58:24.200Z,34.50
2018-12-14T07:00:51.693Z,25.93
2018-12-14T07:03:19.208Z,25.63
2018-12-14T07:05:46.708Z,25.60
2018-12-14T07:08:14.197Z,28.37
2018-12-14T07:10:41.726Z,29.33
2018-12-14T07:13:09.200Z,28.27
2018-12-14T07:15:36.744Z,27.13
2018-12-14T07:18:04.805Z,28.07
2018-12-14T07:20:32.602Z,29.63
2018-12-14T07:23:00.141Z,27.60
2018-12-14T07:25:27.629Z,29.03
2018-12-14T07:27:55.157Z,27.03
2018-12-14T07:30:22.779Z,26.40
2018-12-14T07:32:50.318Z,31.20
2018-12-14T07:35:17.807Z,30.63
2018-12-14T07:37:45.286Z,27.77
2018-12-14T07:40:12.801Z,28.17
2018-12-14T07:42:40.278Z,30.70
2018-12-14T07:45:07.902Z,28.17
2018-12-14T07:47:35.390Z,28.80
2018-12-14T07:50:03.425Z,29.07
2018-12-14T07:52:30.938Z,26.70
2018-12-14T07:54:58.524Z,27.70
2018-12-14T07:57:26.020Z,32.23
2018-12-14T07:59:53.651Z,26.13
2018-12-14T08:02:21.146Z,28.90
2018-12-14T08:04:48.610Z,29.20
2018-12-14T08:07:16.334Z,29.50
2018-12-14T08:09:43.901Z,28.90
2018-12-14T08:12:11.439Z,28.30
2018-12-14T08:14:38.920Z,26.17
2018-12-14T08:17:06.453Z,25.67
2018-12-14T08:19:33.951Z,28.30
2018-12-14T08:22:01.502Z,29.23
2018-12-14T08:24:29.000Z,29.70
2018-12-14T08:26:56.521Z,27.00
2018-12-14T08:29:24.097Z,29.23
2018-12-14T08:31:51.598Z,28.77
2018-12-14T08:34:19.195Z,26.67
2018-12-14T08:36:46.702Z,26.93
2018-12-14T08:39:14.208Z,24.77
2018-12-14T08:41:41.718Z,29.07
2018-12-14T08:44:09.236Z,27.87
2018-12-14T08:46:36.737Z,26.17
2018-12-14T08:49:04.270Z,27.70
2018-12-14T08:51:31.818Z,29.20
2018-12-14T08:53:59.285Z,24.63
2018-12-14T08:56:26.854Z,25.53
2018-12-14T08:58:54.396Z,25.83
2018-12-14T09:01:21.899Z,26.23
2018-12-14T09:03:49.404Z,24.27
2018-12-14T09:06:16.887Z,26.30
2018-12-14T09:08:44.448Z,25.27
2018-12-14T09:11:12.014Z,22.27
2018-12-14T09:13:39.491Z,26.77
2018-12-14T09:16:06.978Z,23.17
2018-12-14T09:18:34.472Z,23.07
2018-12-14T09:21:01.952Z,24.30
2018-12-14T09:23:29.516Z,27.97
2018-12-14T09:25:57.047Z,23.00
2018-12-14T09:28:24.567Z,24.60
2018-12-14T09:30:52.046Z,23.93
2018-12-14T09:33:19.539Z,20.13
2018-12-14T09:35:47.022Z,25.30
2018-12-14T09:38:14.502Z,22.87
2018-12-14T09:40:42.028Z,23.50
2018-12-14T09:43:09.537Z,21.47
2018-12-14T09:45:37.023Z,22.27
2018-12-14T09:48:04.525Z,23.63
2018-12-14T09:50:32.070Z,22.30
2018-12-14T09:52:59.608Z,22.17
2018-12-14T09:55:27.083Z,21.57
2018-12-14T09:57:54.576Z,22.07
2018-12-14T10:00:22.116Z,21.57
2018-12-14T10:02:49.582Z,21.60
2018-12-14T10:05:17.066Z,21.90
2018-12-14T10:07:46.939Z,22.47
2018-12-14T10:10:14.072Z,17.03
2018-12-14T10:12:41.560Z,16.77
2018-12-14T10:15:09.028Z,18.10
2018-12-14T10:17:36.565Z,17.53
2018-12-14T10:20:06.784Z,25.73
2018-12-14T10:22:34.530Z,18.87
2018-12-14T10:25:02.062Z,16.57
2018-12-14T10:27:29.560Z,26.87
2018-12-14T10:29:57.077Z,19.63
2018-12-14T10:32:24.561Z,16.83
2018-12-14T10:34:52.060Z,17.37
2018-12-14T10:37:19.597Z,14.33
2018-12-14T10:39:47.112Z,16.87
2018-12-14T10:42:14.643Z,15.73
2018-12-14T10:44:42.114Z,15.53
2018-12-14T10:47:09.601Z,16.07
2018-12-14T10:49:37.108Z,17.93
2018-12-14T10:52:04.644Z,14.27
2018-12-14T10:54:32.349Z,13.27
2018-12-14T10:56:59.873Z,13.50
2018-12-14T10:59:27.433Z,15.07
2018-12-14T11:01:56.312Z,15.60
2018-12-14T11:04:25.337Z,12.37
2018-12-14T11:06:53.612Z,11.43
2018-12-14T11:09:21.104Z,12.90
2018-12-14T11:11:48.648Z,16.80
2018-12-14T11:14:16.144Z,11.87
2018-12-14T11:16:43.624Z,11.73
2018-12-14T11:19:11.205Z,11.27
2018-12-14T11:21:38.748Z,14.50
2018-12-14T11:24:06.272Z,12.13
2018-12-14T11:26:36.550Z,13.13
2018-12-14T11:29:04.066Z,16.60
2018-12-14T11:31:31.558Z,16.90
2018-12-14T11:33:59.035Z,18.23
2018-12-14T11:36:26.547Z,13.83
2018-12-14T11:38:54.036Z,11.00
2018-12-14T11:41:21.607Z,14.73
2018-12-14T11:43:49.080Z,11.50
2018-12-14T11:46:16.658Z,12.03
2018-12-14T11:48:44.227Z,12.67
2018-12-14T11:51:12.422Z,11.27
2018-12-14T11:53:39.933Z,12.07
2018-12-14T11:56:07.437Z,12.40
2018-12-14T11:58:34.939Z,11.50
2018-12-14T12:01:02.517Z,13.60
2018-12-14T12:03:29.985Z,13.43
2018-12-14T12:05:57.473Z,11.97
2018-12-14T12:08:24.962Z,14.53
2018-12-14T12:10:52.540Z,13.00
2018-12-14T12:13:20.121Z,13.53
2018-12-14T12:15:47.629Z,16.83
2018-12-14T12:18:15.111Z,13.63
2018-12-14T12:20:42.671Z,11.87
2018-12-14T12:23:10.133Z,14.27
2018-12-14T12:25:37.655Z,12.33
2018-12-14T12:28:05.173Z,11.60
2018-12-14T12:30:32.673Z,9.47
2018-12-14T12:33:00.145Z,8.73
2018-12-14T12:35:27.751Z,11.43
2018-12-14T12:37:55.278Z,10.97
2018-12-14T12:40:22.792Z,9.77
2018-12-14T12:42:50.330Z,10.00
2018-12-14T12:45:17.894Z,12.03
2018-12-14T12:47:45.413Z,10.87
2018-12-14T12:50:12.904Z,12.70
2018-12-14T12:52:40.423Z,11.10
2018-12-14T12:55:07.900Z,13.20
2018-12-14T12:57:35.425Z,12.17
2018-12-14T13:00:03.050Z,11.73
2018-12-14T13:02:30.541Z,12.23
2018-12-14T13:04:58.014Z,11.40
2018-12-14T13:07:25.484Z,13.23
2018-12-14T13:09:52.960Z,10.20
2018-12-14T13:12:20.444Z,10.67
2018-12-14T13:14:47.909Z,11.33
2018-12-14T13:17:15.459Z,11.40
2018-12-14T13:19:43.020Z,11.00
2018-12-14T13:22:10.583Z,11.10
2018-12-14T13:24:38.054Z,11.20
2018-12-14T13:27:05.601Z,11.27
2018-12-14T13:29:33.064Z,14.93
2018-12-14T13:32:00.581Z,15.03
2018-12-14T13:34:28.065Z,14.13
2018-12-14T13:36:55.536Z,14.33
2018-12-14T13:39:23.045Z,16.37
2018-12-14T13:41:50.566Z,16.27
2018-12-14T13:44:18.130Z,11.17
2018-12-14T13:46:45.621Z,14.23
2018-12-14T13:49:13.119Z,16.83
2018-12-14T13:51:40.717Z,13.27
2018-12-14T13:54:08.231Z,13.30
2018-12-14T13:56:35.695Z,14.63
2018-12-14T13:59:03.309Z,15.53
2018-12-14T14:01:30.841Z,13.73
2018-12-14T14:03:58.345Z,14.67
2018-12-14T14:06:25.919Z,15.80
2018-12-14T14:08:53.436Z,16.13
2018-12-14T14:11:20.909Z,15.77
2018-12-14T14:13:48.470Z,17.63
2018-12-14T14:16:15.953Z,15.60
2018-12-14T14:18:43.450Z,16.27
2018-12-14T14:21:11.015Z,17.73
2018-12-14T14:23:38.502Z,16.17
2018-12-14T14:26:06.063Z,18.07
2018-12-14T14:28:33.706Z,15.73
2018-12-14T14:31:01.402Z,15.90
2018-12-14T14:33:28.877Z,18.20
2018-12-14T14:35:56.419Z,21.53
2018-12-14T14:38:23.950Z,18.13
2018-12-14T14:40:51.416Z,18.80
2018-12-14T14:43:18.934Z,20.03
2018-12-14T14:45:46.444Z,18.47
2018-12-14T14:48:13.982Z,19.60
2018-12-14T14:50:41.501Z,19.77
2018-12-14T14:53:09.009Z,17.07
2018-12-14T14:55:36.589Z,20.20
2018-12-14T14:58:04.143Z,19.37
2018-12-14T15:00:32.061Z,22.10
2018-12-14T15:02:59.748Z,24.00
2018-12-14T15:05:27.229Z,21.70
2018-12-14T15:07:54.789Z,24.07
2018-12-14T15:10:22.307Z,23.23
2018-12-14T15:12:49.787Z,25.87
2018-12-14T15:15:17.369Z,25.33
2018-12-14T15:17:44.849Z,23.17
2018-12-14T15:20:12.386Z,23.57
2018-12-14T15:22:39.887Z,23.57
2018-12-14T15:25:07.386Z,28.70
2018-12-14T15:27:34.952Z,25.33
2018-12-14T15:30:02.727Z,31.40
2018-12-14T15:32:30.696Z,27.03
2018-12-14T15:34:59.306Z,25.77
2018-12-14T15:37:26.965Z,26.07
2018-12-14T15:39:54.449Z,28.83
2018-12-14T15:42:21.978Z,27.67
2018-12-14T15:44:49.477Z,33.23
2018-12-14T15:47:16.998Z,26.90
2018-12-14T15:49:44.558Z,28.97
2018-12-14T15:52:12.058Z,31.27
2018-12-14T15:54:39.570Z,28.73
2018-12-14T15:57:07.071Z,29.10
2018-12-14T15:59:34.595Z,29.70
2018-12-14T16:02:02.125Z,32.43
2018-12-14T16:04:29.645Z,30.97
2018-12-14T16:06:57.210Z,30.47
2018-12-14T16:09:24.748Z,31.47
2018-12-14T16:11:52.259Z,28.77
2018-12-14T16:14:19.778Z,32.77
2018-12-14T16:16:47.439Z,30.50
2018-12-14T16:19:15.021Z,30.77
2018-12-14T16:21:42.536Z,31.70
2018-12-14T16:24:10.015Z,33.17
2018-12-14T16:26:37.573Z,38.37
2018-12-14T16:29:05.086Z,34.73
2018-12-14T16:31:32.582Z,34.10
2018-12-14T16:34:00.154Z,36.23
2018-12-14T16:36:27.631Z,31.70
2018-12-14T16:38:55.201Z,31.47
2018-12-14T16:41:22.826Z,33.00
2018-12-14T16:43:50.332Z,32.70
2018-12-14T16:46:17.845Z,32.97
2018-12-14T16:48:45.339Z,33.57
2018-12-14T16:51:12.854Z,32.47
2018-12-14T16:53:46.037Z,35.13
2018-12-14T16:56:13.608Z,34.30
2018-12-14T16:58:41.101Z,32.20
2018-12-14T17:01:08.598Z,33.97
2018-12-14T17:03:36.085Z,36.27
2018-12-14T17:06:03.574Z,32.63
2018-12-14T17:08:31.074Z,32.57
2018-12-14T17:10:58.563Z,33.70
2018-12-14T17:13:26.123Z,29.70
2018-12-14T17:15:53.641Z,34.07
2018-12-14T17:18:21.150Z,33.20
2018-12-14T17:20:48.629Z,32.03
2018-12-14T17:23:16.126Z,29.23
2018-12-14T17:25:43.632Z,34.73
2018-12-14T17:28:11.475Z,35.30
2018-12-14T17:30:38.963Z,33.33
2018-12-14T17:33:06.599Z,36.37
2018-12-14T17:35:34.125Z,35.23
2018-12-14T17:38:01.659Z,33.57
2018-12-14T17:40:29.190Z,36.63
2018-12-14T17:42:56.762Z,33.17
2018-12-14T17:45:24.317Z,32.40
2018-12-14T17:47:51.821Z,34.40
2018-12-14T17:50:19.371Z,36.47
2018-12-14T17:52:46.860Z,34.63
2018-12-14T17:55:14.356Z,33.13
2018-12-14T17:57:41.848Z,32.93
2018-12-14T18:00:09.438Z,35.53
2018-12-14T18:02:36.915Z,35.13
2018-12-14T18:05:04.806Z,37.40
2018-12-14T18:07:32.317Z,38.83
2018-12-14T18:09:59.848Z,37.33
2018-12-14T18:12:27.415Z,36.23
2018-12-14T18:14:54.973Z,34.60
2018-12-14T18:17:22.458Z,34.70
2018-12-14T18:19:49.976Z,37.20
2018-12-14T18:22:17.981Z,36.23
2018-12-14T18:24:45.496Z,34.13
2018-12-14T18:27:13.013Z,38.27
2018-12-14T18:29:40.488Z,38.27
2018-12-14T18:32:08.070Z,39.60
2018-12-14T18:34:35.564Z,37.63
2018-12-14T18:37:03.106Z,35.87
2018-12-14T18:39:30.774Z,37.80
2018-12-14T18:41:58.346Z,35.53
2018-12-14T18:44:25.902Z,39.07
2018-12-14T18:46:53.464Z,39.33
2018-12-14T18:49:21.036Z,37.53
2018-12-14T18:51:48.578Z,36.97
2018-12-14T18:54:16.372Z,40.10
2018-12-14T18:56:43.922Z,37.00
2018-12-14T18:59:11.651Z,37.80
2018-12-14T19:01:39.208Z,35.97
2018-12-14T19:04:06.688Z,39.77
2018-12-14T19:06:34.229Z,36.70
2018-12-14T19:09:01.718Z,36.97
2018-12-14T19:11:29.311Z,36.87
2018-12-14T19:13:56.862Z,42.13
2018-12-14T19:16:24.417Z,35.77
2018-12-14T19:18:53.116Z,34.50
2018-12-14T19:21:20.888Z,36.33
2018-12-14T19:23:48.405Z,37.70
2018-12-14T19:26:15.898Z,37.93
2018-12-14T19:28:43.433Z,37.13
2018-12-14T19:31:10.922Z,38.50
2018-12-14T19:33:38.435Z,37.17
2018-12-14T19:38:41.490Z,34.53
2018-12-14T19:41:10.825Z,39.40
2018-12-14T19:43:38.377Z,39.93
2018-12-14T19:46:06.517Z,39.83
2018-12-14T19:48:34.340Z,37.97
2018-12-14T19:51:01.823Z,33.83
2018-12-14T19:53:29.334Z,35.60
2018-12-14T19:55:56.801Z,37.83
2018-12-14T19:58:24.311Z,37.40
2018-12-14T20:00:51.840Z,36.57
2018-12-14T20:03:19.411Z,33.60
2018-12-14T20:05:46.991Z,36.00
2018-12-14T20:08:14.538Z,37.17
2018-12-14T20:10:42.020Z,38.77
2018-12-14T20:13:09.521Z,37.70
2018-12-14T20:15:37.116Z,35.47
2018-12-14T20:18:04.625Z,34.13
2018-12-14T20:20:32.127Z,35.53
2018-12-14T20:22:59.692Z,35.83
2018-12-14T20:25:27.164Z,30.70
2018-12-14T20:27:54.690Z,35.63
2018-12-14T20:30:22.179Z,34.90
2018-12-14T20:32:49.659Z,34.37
2018-12-14T20:35:17.458Z,31.67
2018-12-14T20:37:45.252Z,35.30
2018-12-14T20:40:12.825Z,31.83
2018-12-14T20:42:40.311Z,33.10
2018-12-14T20:45:07.812Z,37.00
2018-12-14T20:47:35.389Z,33.47
2018-12-14T20:50:03.008Z,33.20
2018-12-14T20:52:30.476Z,32.47
2018-12-14T20:54:57.992Z,36.97
2018-12-14T20:57:25.553Z,30.37
2018-12-14T20:59:53.070Z,31.90
2018-12-14T21:02:20.674Z,31.43
2018-12-14T21:04:48.223Z,29.33
2018-12-14T21:07:15.709Z,28.57
2018-12-14T21:09:43.242Z,29.73
2018-12-14T21:12:10.714Z,31.47
2018-12-14T21:14:38.432Z,32.80
2018-12-14T21:17:05.922Z,29.47
2018-12-14T21:19:33.433Z,28.63
2018-12-14T21:22:00.944Z,25.90
2018-12-14T21:24:28.492Z,29.40
2018-12-14T21:26:55.965Z,29.13
2018-12-14T21:29:23.528Z,28.87
2018-12-14T21:31:51.011Z,29.03
2018-12-14T21:34:18.533Z,27.87
2018-12-14T21:36:46.028Z,26.70
2018-12-14T21:39:13.509Z,26.33
2018-12-14T21:41:41.006Z,26.70
2018-12-14T21:44:08.518Z,28.70
2018-12-14T21:46:36.041Z,27.33
2018-12-14T21:49:03.513Z,27.57
2018-12-14T21:51:31.060Z,28.17
2018-12-14T21:53:58.545Z,27.10
2018-12-14T21:56:26.038Z,26.43
2018-12-14T21:58:53.566Z,28.20
2018-12-14T22:01:21.065Z,24.07
2018-12-14T22:03:48.660Z,26.30
2018-12-14T22:06:16.226Z,29.13
2018-12-14T22:08:43.778Z,27.33
2018-12-14T22:11:11.313Z,28.33
2018-12-14T22:13:38.827Z,27.57
2018-12-14T22:16:06.383Z,24.87
2018-12-14T22:18:33.850Z,27.17
2018-12-14T22:21:01.387Z,26.13
2018-12-14T22:23:28.957Z,27.83
2018-12-14T22:25:56.489Z,26.97
2018-12-14T22:28:24.075Z,26.60
2018-12-14T22:30:51.565Z,26.03
2018-12-14T22:33:19.099Z,27.17
2018-12-14T22:35:46.683Z,25.43
2018-12-14T22:38:14.176Z,25.67
2018-12-14T22:40:41.665Z,24.27
2018-12-14T22:43:09.164Z,24.10
2018-12-14T22:45:36.643Z,25.37
2018-12-14T22:48:04.129Z,25.07
2018-12-14T22:50:31.707Z,23.40
2018-12-14T22:52:59.200Z,24.37
2018-12-14T22:55:26.718Z,24.90
2018-12-14T22:57:54.309Z,21.37
2018-12-14T23:00:22.088Z,22.23
2018-12-14T23:02:49.642Z,24.47
2018-12-14T23:05:17.124Z,22.17
2018-12-14T23:07:44.628Z,25.07
2018-12-14T23:10:12.148Z,23.93
2018-12-14T23:12:39.662Z,24.63
2018-12-14T23:15:07.351Z,22.93
2018-12-14T23:17:34.850Z,23.27
2018-12-14T23:20:02.432Z,21.77
2018-12-14T23:22:29.955Z,25.47
2018-12-14T23:24:57.446Z,20.23
2018-12-14T23:27:24.928Z,21.67
2018-12-14T23:29:52.423Z,21.10
2018-12-14T23:32:19.926Z,21.33
2018-12-14T23:34:47.407Z,21.20
2018-12-14T23:37:14.941Z,20.50
2018-12-14T23:39:42.443Z,20.13
2018-12-14T23:42:09.924Z,19.43
2018-12-14T23:44:37.416Z,20.53
2018-12-14T23:47:06.804Z,20.53
2018-12-14T23:49:34.292Z,20.23
2018-12-14T23:52:01.824Z,21.03
2018-12-14T23:54:29.325Z,18.13
2018-12-14T23:56:56.805Z,18.80
2018-12-14T23:59:24.294Z,19.63
